TimeCST,TemperatureF,Dew PointF,Humidity,Sea Level PressureIn,VisibilityMPH,Wind Direction,Wind SpeedMPH,Gust SpeedMPH,PrecipitationIn,Events,Conditions,WindDirDegrees,DateUTC
12:15 AM,34.2,34.0,99,30.08,1.0,Calm,Calm,-,N/A,,Overcast,0,2013-01-01 06:15:00
12:35 AM,34.2,34.2,100,30.08,0.8,Calm,Calm,-,N/A,,Overcast,0,2013-01-01 06:35:00
12:55 AM,34.0,34.0,100,30.07,0.8,Calm,Calm,-,N/A,,Overcast,0,2013-01-01 06:55:00
1:15 AM,34.0,34.0,100,30.07,0.8,Calm,Calm,-,N/A,,Overcast,0,2013-01-01 07:15:00
1:35 AM,34.2,34.2,100,30.08,1.0,Calm,Calm,-,N/A,,Overcast,0,2013-01-01 07:35:00
1:55 AM,34.0,34.0,100,30.07,1.0,NNW,4.6,-,N/A,,Overcast,330,2013-01-01 07:55:00
2:15 AM,34.2,34.2,100,30.08,1.2,NNW,4.6,-,N/A,,Overcast,330,2013-01-01 08:15:00
2:35 AM,34.3,34.3,100,30.09,2.0,NNW,5.8,-,N/A,,Overcast,330,2013-01-01 08:35:00
2:55 AM,34.2,34.2,100,30.09,2.5,NNW,8.1,-,N/A,,Overcast,340,2013-01-01 08:55:00
3:15 AM,34.2,34.2,100,30.09,3.0,NNW,9.2,-,N/A,,Overcast,340,2013-01-01 09:15:00
3:35 AM,34.2,34.2,100,30.10,3.0,North,6.9,-,N/A,,Overcast,350,2013-01-01 09:35:00
3:55 AM,34.2,34.2,100,30.10,5.0,North,5.8,-,N/A,,Overcast,350,2013-01-01 09:55:00
4:15 AM,34.2,34.2,100,30.10,4.0,NNW,9.2,-,N/A,,Overcast,340,2013-01-01 10:15:00
4:35 AM,34.2,34.0,99,30.09,5.0,North,9.2,-,N/A,,Overcast,350,2013-01-01 10:35:00
4:55 AM,34.2,34.0,99,30.08,5.0,North,8.1,-,N/A,,Overcast,350,2013-01-01 10:55:00
5:15 AM,34.3,34.0,99,30.10,5.0,North,4.6,-,N/A,,Overcast,350,2013-01-01 11:15:00
5:35 AM,34.3,33.8,98,30.11,5.0,North,6.9,-,N/A,,Overcast,350,2013-01-01 11:35:00
5:55 AM,34.3,33.8,98,30.12,4.0,NNW,8.1,-,N/A,,Overcast,330,2013-01-01 11:55:00
6:15 AM,33.8,33.4,99,30.12,2.5,NNW,10.4,-,N/A,,Overcast,340,2013-01-01 12:15:00
6:35 AM,33.8,33.1,97,30.10,4.0,NNW,10.4,-,N/A,,Overcast,340,2013-01-01 12:35:00
6:55 AM,33.4,32.5,96,30.10,5.0,Calm,Calm,-,N/A,,Overcast,0,2013-01-01 12:55:00
7:15 AM,33.4,32.5,96,30.12,4.0,Calm,Calm,-,N/A,,Overcast,0,2013-01-01 13:15:00
7:35 AM,33.3,32.2,96,30.13,3.0,Calm,Calm,-,N/A,,Overcast,0,2013-01-01 13:35:00
7:55 AM,32.9,32.0,96,30.11,2.5,Calm,Calm,-,N/A,,Overcast,0,2013-01-01 13:55:00
8:15 AM,32.7,32.0,97,30.13,2.0,Calm,Calm,-,N/A,,Overcast,0,2013-01-01 14:15:00
8:35 AM,32.2,31.6,98,30.15,2.0,Calm,Calm,-,N/A,,Overcast,0,2013-01-01 14:35:00
8:55 AM,32.0,30.7,95,30.16,2.5,Calm,Calm,-,N/A,,Overcast,0,2013-01-01 14:55:00
9:15 AM,31.1,29.1,92,30.16,4.0,Calm,Calm,-,N/A,,Overcast,0,2013-01-01 15:15:00
9:35 AM,30.6,28.0,90,30.17,5.0,Calm,Calm,-,N/A,,Overcast,0,2013-01-01 15:35:00
9:55 AM,30.6,27.5,88,30.18,5.0,Calm,Calm,-,N/A,,Mostly Cloudy,0,2013-01-01 15:55:00
10:15 AM,29.8,26.6,88,30.17,7.0,Calm,Calm,-,N/A,,Mostly Cloudy,0,2013-01-01 16:15:00
10:35 AM,29.3,26.1,88,30.14,7.0,Calm,Calm,-,N/A,,Scattered Clouds,0,2013-01-01 16:35:00
10:55 AM,28.8,24.8,85,30.17,5.0,Calm,Calm,-,N/A,,Clear,0,2013-01-01 16:55:00
11:15 AM,29.1,25.2,85,30.17,5.0,Calm,Calm,-,N/A,,Scattered Clouds,0,2013-01-01 17:15:00
11:35 AM,29.1,24.8,84,30.17,5.0,Calm,Calm,-,N/A,,Mostly Cloudy,0,2013-01-01 17:35:00
11:55 AM,29.3,25.2,85,30.18,5.0,Calm,Calm,-,N/A,,Mostly Cloudy,0,2013-01-01 17:55:00
12:15 PM,29.3,25.3,85,30.18,5.0,Calm,Calm,-,N/A,,Mostly Cloudy,0,2013-01-01 18:15:00
12:35 PM,29.1,25.2,85,30.18,5.0,Calm,Calm,-,N/A,,Overcast,0,2013-01-01 18:35:00
12:55 PM,28.9,24.8,84,30.17,5.0,Calm,Calm,-,N/A,,Overcast,0,2013-01-01 18:55:00
1:15 PM,28.4,24.8,86,30.15,5.0,Calm,Calm,-,N/A,,Overcast,0,2013-01-01 19:15:00
1:35 PM,28.6,24.8,86,30.12,5.0,Calm,Calm,-,N/A,,Overcast,0,2013-01-01 19:35:00
1:55 PM,28.9,24.8,84,30.13,5.0,Calm,Calm,-,N/A,,Overcast,0,2013-01-01 19:55:00
2:15 PM,28.8,24.3,83,30.14,5.0,Calm,Calm,-,N/A,,Haze,0,2013-01-01 20:15:00
2:35 PM,28.9,24.6,84,30.14,5.0,Calm,Calm,-,N/A,,Haze,0,2013-01-01 20:35:00
2:55 PM,28.8,24.4,84,30.14,5.0,Calm,Calm,-,N/A,,Haze,0,2013-01-01 20:55:00
3:15 PM,28.6,23.9,83,30.15,7.0,Calm,Calm,-,N/A,,Overcast,0,2013-01-01 21:15:00
3:35 PM,28.6,24.4,84,30.16,5.0,Calm,Calm,-,N/A,,Overcast,0,2013-01-01 21:35:00
3:55 PM,28.4,23.9,83,30.16,5.0,Calm,Calm,-,N/A,,Overcast,0,2013-01-01 21:55:00
4:15 PM,28.2,23.9,84,30.15,7.0,Calm,Calm,-,N/A,,Overcast,0,2013-01-01 22:15:00
4:35 PM,28.0,23.5,83,30.16,7.0,Calm,Calm,-,N/A,,Overcast,0,2013-01-01 22:35:00
4:55 PM,27.9,23.5,84,30.15,10.0,Calm,Calm,-,N/A,,Overcast,0,2013-01-01 22:55:00
5:15 PM,27.9,23.5,84,30.17,10.0,Calm,Calm,-,N/A,,Overcast,0,2013-01-01 23:15:00
5:35 PM,27.9,23.0,82,30.18,10.0,Calm,Calm,-,N/A,,Overcast,0,2013-01-01 23:35:00
5:55 PM,27.5,23.0,83,30.20,10.0,Calm,Calm,-,N/A,,Overcast,0,2013-01-01 23:55:00
6:15 PM,27.5,23.2,84,30.20,7.0,Calm,Calm,-,N/A,,Overcast,0,2013-01-02 00:15:00
6:35 PM,27.3,22.8,83,30.20,10.0,Calm,Calm,-,N/A,,Overcast,0,2013-01-02 00:35:00
6:55 PM,26.6,22.1,83,30.21,10.0,Calm,Calm,-,N/A,,Overcast,0,2013-01-02 00:55:00
7:15 PM,26.4,21.2,81,30.20,10.0,Calm,Calm,-,N/A,,Overcast,0,2013-01-02 01:15:00
7:35 PM,26.1,20.8,81,30.22,10.0,Calm,Calm,-,N/A,,Overcast,0,2013-01-02 01:35:00
7:55 PM,25.7,20.3,80,30.22,10.0,Calm,Calm,-,N/A,,Overcast,0,2013-01-02 01:55:00
8:15 PM,25.5,20.3,81,30.21,10.0,Calm,Calm,-,N/A,,Overcast,0,2013-01-02 02:15:00
8:35 PM,25.3,19.9,80,30.22,10.0,Calm,Calm,-,N/A,,Mostly Cloudy,0,2013-01-02 02:35:00
8:55 PM,24.6,19.6,81,30.22,10.0,Calm,Calm,-,N/A,,Scattered Clouds,0,2013-01-02 02:55:00
9:15 PM,24.4,19.4,81,30.22,10.0,Calm,Calm,-,N/A,,Clear,0,2013-01-02 03:15:00
9:35 PM,23.7,19.0,82,30.23,10.0,Calm,Calm,-,N/A,,Clear,0,2013-01-02 03:35:00
9:55 PM,23.4,18.5,82,30.23,10.0,Calm,Calm,-,N/A,,Clear,0,2013-01-02 03:55:00
10:15 PM,22.6,18.0,82,30.23,10.0,Calm,Calm,-,N/A,,Clear,0,2013-01-02 04:15:00
10:35 PM,22.1,17.6,83,30.24,10.0,Calm,Calm,-,N/A,,Clear,0,2013-01-02 04:35:00
10:55 PM,21.7,16.7,81,30.25,10.0,Calm,Calm,-,N/A,,Clear,0,2013-01-02 04:55:00
11:15 PM,20.8,16.3,83,30.24,10.0,Calm,Calm,-,N/A,,Clear,0,2013-01-02 05:15:00
11:35 PM,20.3,15.8,83,30.24,10.0,Calm,Calm,-,N/A,,Clear,0,2013-01-02 05:35:00
11:55 PM,19.4,14.9,83,30.23,10.0,Calm,Calm,-,N/A,,Clear,0,2013-01-02 05:55:00